Cleveland, Ohio
Traffic Map
Current Weather Conditions
Cleveland, Ohio
Clear
Clear
27°
Feels Like: 29°
Wind Chill: 27° Ceiling: Unl
Heat Index: 29° Visibility: 10mi
Dew Point: 21° Wind: 6mph
Humidity: 69% Direction: 40° (NE)
Pressure: 30.04in Gusts: 0mph
Raw Report DataKBKL 012153Z 04005KT 10SM CLR 27/21 A3004 RMK AO2 SLP170 T02720211
Traffic Incident Summary
Active as of:
Severity:
Category:
InformationThere was an issue retrieving the traffic information for this location. Please try a different location or try again shortly.
Advertisements
Track Severe Weather on mobile